createdAt,value
2023-06-30T00:01:00.114Z,4.70
2023-06-30T00:03:27.030Z,4.17
2023-06-30T00:05:54.047Z,4.30
2023-06-30T00:08:20.739Z,4.30
2023-06-30T00:10:47.496Z,4.40
2023-06-30T00:13:14.243Z,4.23
2023-06-30T00:15:41.052Z,4.43
2023-06-30T00:18:08.016Z,4.60
2023-06-30T00:20:34.819Z,5.20
2023-06-30T00:23:01.943Z,4.60
2023-06-30T00:25:28.762Z,4.93
2023-06-30T00:27:55.495Z,4.63
2023-06-30T00:30:22.177Z,4.53
2023-06-30T00:32:49.210Z,4.37
2023-06-30T00:35:15.952Z,4.80
2023-06-30T00:37:42.626Z,4.60
2023-06-30T00:40:10.662Z,4.60
2023-06-30T00:42:37.413Z,4.90
2023-06-30T00:45:04.389Z,4.70
2023-06-30T00:47:31.146Z,4.13
2023-06-30T00:49:58.096Z,4.60
2023-06-30T00:52:25.163Z,4.83
2023-06-30T00:54:52.181Z,4.50
2023-06-30T00:57:19.151Z,4.30
2023-06-30T00:59:45.877Z,4.93
2023-06-30T01:02:19.517Z,4.67
2023-06-30T01:05:00.400Z,4.70
2023-06-30T01:07:30.266Z,4.60
2023-06-30T01:10:03.823Z,4.70
2023-06-30T01:12:30.927Z,5.27
2023-06-30T01:14:58.189Z,4.83
2023-06-30T01:17:26.507Z,4.90
2023-06-30T01:19:55.166Z,4.70
2023-06-30T01:22:26.860Z,4.63
2023-06-30T01:24:56.030Z,5.30
2023-06-30T01:27:23.176Z,5.27
2023-06-30T01:29:51.632Z,5.40
2023-06-30T01:32:18.581Z,4.63
2023-06-30T01:34:46.029Z,5.00
2023-06-30T01:37:13.402Z,4.47
2023-06-30T01:39:41.191Z,4.67
2023-06-30T01:42:08.719Z,5.27
2023-06-30T01:44:36.456Z,4.80
2023-06-30T01:47:03.684Z,4.80
2023-06-30T01:49:30.538Z,4.63
2023-06-30T01:51:57.291Z,4.47
2023-06-30T01:54:24.004Z,5.33
2023-06-30T01:56:51.020Z,5.03
2023-06-30T01:59:17.754Z,4.67
2023-06-30T02:01:44.504Z,4.63
2023-06-30T02:04:11.259Z,4.90
2023-06-30T02:06:37.964Z,5.03
2023-06-30T02:09:04.725Z,5.07
2023-06-30T02:11:31.464Z,4.40
2023-06-30T02:13:58.451Z,4.87
2023-06-30T02:16:25.226Z,4.47
2023-06-30T02:18:55.703Z,4.87
2023-06-30T02:21:23.392Z,5.13
2023-06-30T02:23:50.110Z,4.83
2023-06-30T02:26:16.897Z,5.10
2023-06-30T02:28:43.604Z,4.73
2023-06-30T02:31:10.370Z,4.87
2023-06-30T02:33:37.084Z,4.90
2023-06-30T02:36:04.070Z,4.60
2023-06-30T02:38:31.066Z,4.60
2023-06-30T02:40:58.035Z,5.17
2023-06-30T02:43:24.842Z,5.00
2023-06-30T02:45:51.858Z,4.40
2023-06-30T02:48:18.582Z,4.73
2023-06-30T02:50:45.358Z,4.80
2023-06-30T02:53:14.114Z,5.03
2023-06-30T02:55:40.772Z,4.97
2023-06-30T02:58:11.363Z,4.83
2023-06-30T03:00:40.873Z,5.00
2023-06-30T03:03:07.745Z,4.60
2023-06-30T03:05:35.301Z,4.90
2023-06-30T03:08:04.580Z,5.27
2023-06-30T03:10:31.438Z,5.57
2023-06-30T03:12:58.691Z,5.30
2023-06-30T03:15:26.556Z,5.27
2023-06-30T03:17:54.857Z,5.67
2023-06-30T03:20:23.065Z,5.60
2023-06-30T03:22:49.980Z,4.93
2023-06-30T03:25:16.652Z,5.17
2023-06-30T03:27:43.457Z,5.07
2023-06-30T03:30:10.616Z,5.17
2023-06-30T03:32:42.810Z,5.20
2023-06-30T03:35:10.900Z,5.43
2023-06-30T03:37:37.894Z,5.23
2023-06-30T03:40:06.812Z,5.53
2023-06-30T03:42:33.860Z,4.73
2023-06-30T03:45:01.774Z,5.50
2023-06-30T03:47:30.722Z,5.60
2023-06-30T03:49:57.431Z,5.60
2023-06-30T03:52:24.172Z,5.37
2023-06-30T03:54:51.673Z,5.67
2023-06-30T03:57:18.398Z,5.57
2023-06-30T03:59:45.181Z,5.63
2023-06-30T04:02:11.919Z,3.97
2023-06-30T04:04:38.920Z,4.87
2023-06-30T04:07:05.923Z,6.07
2023-06-30T04:09:32.736Z,6.13
2023-06-30T04:11:59.423Z,5.80
2023-06-30T04:14:26.080Z,6.10
2023-06-30T04:16:52.820Z,5.67
2023-06-30T04:19:19.551Z,5.80
2023-06-30T04:21:46.285Z,5.57
2023-06-30T04:24:13.000Z,5.60
2023-06-30T04:26:39.675Z,5.90
2023-06-30T04:29:06.353Z,6.10
2023-06-30T04:31:33.388Z,5.90
2023-06-30T04:34:00.262Z,6.40
2023-06-30T04:36:29.956Z,7.03
2023-06-30T04:38:56.936Z,6.40
2023-06-30T04:41:23.847Z,6.20
2023-06-30T04:43:50.688Z,6.47
2023-06-30T04:46:17.502Z,6.40
2023-06-30T04:48:44.239Z,6.60
2023-06-30T04:51:10.991Z,6.50
2023-06-30T04:53:40.245Z,6.97
2023-06-30T04:56:07.007Z,7.07
2023-06-30T04:58:33.668Z,6.80
2023-06-30T05:01:00.350Z,6.40
2023-06-30T05:03:27.198Z,6.67
2023-06-30T05:05:57.604Z,6.60
2023-06-30T05:08:24.457Z,6.43
2023-06-30T05:10:51.163Z,6.17
2023-06-30T05:13:17.871Z,6.20
2023-06-30T05:15:44.921Z,6.57
2023-06-30T05:18:12.060Z,6.97
2023-06-30T05:20:40.394Z,7.00
2023-06-30T05:23:07.096Z,7.20
2023-06-30T05:25:33.838Z,7.43
2023-06-30T05:28:00.610Z,7.17
2023-06-30T05:30:27.324Z,7.67
2023-06-30T05:32:54.116Z,7.97
2023-06-30T05:35:20.972Z,8.50
2023-06-30T05:37:47.856Z,9.23
2023-06-30T05:40:14.618Z,8.67
2023-06-30T05:42:41.367Z,7.63
2023-06-30T05:45:08.461Z,8.07
2023-06-30T05:47:35.334Z,8.50
2023-06-30T05:50:02.185Z,8.97
2023-06-30T05:52:28.973Z,9.30
2023-06-30T05:54:55.643Z,10.20
2023-06-30T05:57:22.374Z,10.70
2023-06-30T05:59:49.639Z,8.00
2023-06-30T06:02:16.443Z,9.27
2023-06-30T06:04:43.282Z,9.23
2023-06-30T06:07:10.286Z,8.87
2023-06-30T06:09:37.068Z,11.00
2023-06-30T06:12:03.936Z,11.60
2023-06-30T06:14:30.663Z,10.33
2023-06-30T06:16:57.357Z,9.37
2023-06-30T06:19:24.108Z,9.37
2023-06-30T06:21:50.872Z,10.03
2023-06-30T06:24:17.788Z,9.73
2023-06-30T06:26:44.577Z,8.37
2023-06-30T06:29:15.476Z,8.90
2023-06-30T06:31:44.247Z,8.90
2023-06-30T06:34:10.978Z,9.83
2023-06-30T06:36:38.388Z,8.17
2023-06-30T06:39:05.111Z,10.47
2023-06-30T06:41:32.088Z,9.07
2023-06-30T06:43:58.814Z,8.57
2023-06-30T06:46:25.565Z,9.83
2023-06-30T06:48:52.370Z,9.57
2023-06-30T06:51:19.144Z,8.37
2023-06-30T06:53:45.850Z,9.13
2023-06-30T06:56:12.563Z,8.70
2023-06-30T06:58:39.481Z,8.73
2023-06-30T07:01:06.558Z,8.60
2023-06-30T07:03:33.465Z,8.93
2023-06-30T07:06:00.378Z,8.33
2023-06-30T07:08:27.873Z,8.03
2023-06-30T07:10:54.788Z,9.27
2023-06-30T07:13:22.175Z,9.07
2023-06-30T07:15:49.612Z,9.07
2023-06-30T07:18:19.880Z,9.97
2023-06-30T07:20:50.522Z,10.03
2023-06-30T07:23:17.770Z,9.73
2023-06-30T07:25:45.588Z,8.40
2023-06-30T07:28:12.626Z,8.10
2023-06-30T07:30:40.753Z,8.90
2023-06-30T07:33:07.931Z,7.90
2023-06-30T07:35:34.698Z,8.30
2023-06-30T07:38:01.433Z,8.50
2023-06-30T07:40:35.109Z,9.10
2023-06-30T07:43:08.752Z,8.97
2023-06-30T07:45:35.472Z,7.70
2023-06-30T07:48:02.629Z,7.47
2023-06-30T07:50:29.578Z,8.10
2023-06-30T07:52:56.397Z,6.90
2023-06-30T07:55:24.028Z,6.87
2023-06-30T07:57:52.209Z,7.27
2023-06-30T08:00:21.724Z,7.03
2023-06-30T08:02:48.855Z,6.47
2023-06-30T08:05:16.097Z,7.20
2023-06-30T08:07:49.304Z,7.13
2023-06-30T08:10:18.176Z,7.27
2023-06-30T08:12:45.109Z,7.73
2023-06-30T08:15:11.817Z,6.37
2023-06-30T08:17:53.493Z,6.43
2023-06-30T08:20:24.474Z,6.90
2023-06-30T08:22:51.596Z,7.03
2023-06-30T08:25:22.226Z,6.07
2023-06-30T08:27:48.912Z,7.00
2023-06-30T08:30:16.386Z,5.87
2023-06-30T08:32:43.803Z,5.80
2023-06-30T08:35:10.738Z,6.23
2023-06-30T08:37:38.358Z,6.00
2023-06-30T08:40:05.923Z,6.23
2023-06-30T08:42:34.803Z,5.87
2023-06-30T08:45:03.266Z,6.00
2023-06-30T08:47:32.727Z,6.47
2023-06-30T08:49:59.807Z,5.80
2023-06-30T08:52:26.567Z,6.20
2023-06-30T08:54:54.062Z,6.23
2023-06-30T08:57:21.636Z,6.33
2023-06-30T08:59:48.645Z,6.20
2023-06-30T09:02:15.552Z,5.90
2023-06-30T09:04:42.554Z,6.13
2023-06-30T09:07:10.876Z,6.13
2023-06-30T09:09:44.944Z,6.15
2023-06-30T09:12:12.026Z,6.10
2023-06-30T09:14:39.346Z,6.13
2023-06-30T09:17:06.462Z,6.20
2023-06-30T09:19:33.233Z,6.13
2023-06-30T09:22:00.843Z,6.47
2023-06-30T09:24:48.466Z,5.82
2023-06-30T09:27:15.205Z,6.40
2023-06-30T09:29:41.993Z,5.63
2023-06-30T09:32:09.129Z,6.60
2023-06-30T09:34:35.920Z,8.40
2023-06-30T09:37:02.599Z,6.78
2023-06-30T09:39:29.381Z,6.20
2023-06-30T09:41:56.044Z,6.07
2023-06-30T09:44:23.795Z,7.25
2023-06-30T09:46:54.311Z,6.13
2023-06-30T09:49:28.227Z,6.97
2023-06-30T09:51:55.717Z,7.00
2023-06-30T09:54:39.435Z,6.93
2023-06-30T09:57:09.765Z,7.07
2023-06-30T09:59:37.054Z,6.60
2023-06-30T10:02:03.887Z,6.33
2023-06-30T10:04:31.495Z,7.00
2023-06-30T10:06:58.820Z,7.20
2023-06-30T10:09:25.986Z,6.27
2023-06-30T10:11:53.544Z,7.27
2023-06-30T10:14:21.108Z,7.07
2023-06-30T10:16:48.507Z,7.77
2023-06-30T10:19:15.912Z,7.37
2023-06-30T10:21:42.731Z,8.33
2023-06-30T10:24:10.480Z,8.37
2023-06-30T10:26:37.835Z,8.80
2023-06-30T10:29:04.968Z,8.43
2023-06-30T10:31:33.042Z,8.10
2023-06-30T10:33:59.938Z,7.90
2023-06-30T10:36:26.888Z,7.63
2023-06-30T10:38:55.095Z,7.80
2023-06-30T10:41:23.224Z,7.57
2023-06-30T10:44:08.753Z,7.50
2023-06-30T10:46:41.552Z,6.93
2023-06-30T10:49:08.697Z,6.77
2023-06-30T10:51:36.378Z,6.60
2023-06-30T10:54:03.312Z,7.20
2023-06-30T10:56:30.630Z,7.53
2023-06-30T10:58:59.132Z,7.63
2023-06-30T11:01:27.279Z,7.73
2023-06-30T11:03:57.609Z,8.83
2023-06-30T11:06:25.236Z,8.17
2023-06-30T11:09:11.021Z,8.27
2023-06-30T11:11:48.188Z,10.17
2023-06-30T11:14:14.888Z,8.97
2023-06-30T11:17:00.026Z,9.50
2023-06-30T11:19:28.085Z,9.97
2023-06-30T11:22:13.376Z,10.20
2023-06-30T11:24:40.517Z,10.47
2023-06-30T11:27:08.187Z,12.03
2023-06-30T11:29:36.407Z,11.20
2023-06-30T11:32:03.311Z,10.50
2023-06-30T11:34:31.044Z,9.47
2023-06-30T11:36:57.758Z,10.07
2023-06-30T11:39:24.506Z,9.90
2023-06-30T11:41:51.233Z,9.87
2023-06-30T11:44:17.917Z,9.37
2023-06-30T11:46:45.173Z,8.97
2023-06-30T11:49:11.981Z,9.40
2023-06-30T11:51:38.739Z,10.07
2023-06-30T11:54:06.293Z,9.80
2023-06-30T11:56:34.189Z,10.67
2023-06-30T11:59:01.244Z,10.87
2023-06-30T12:01:27.953Z,10.60
2023-06-30T12:03:58.715Z,9.87
2023-06-30T12:06:26.695Z,9.60
2023-06-30T12:08:53.429Z,9.93
2023-06-30T12:11:20.501Z,10.60
2023-06-30T12:13:48.308Z,10.33
2023-06-30T12:16:15.166Z,11.27
2023-06-30T12:18:44.564Z,10.80
2023-06-30T12:21:12.694Z,10.67
2023-06-30T12:23:45.829Z,10.07
2023-06-30T12:26:13.131Z,11.80
2023-06-30T12:28:40.075Z,10.77
2023-06-30T12:31:06.931Z,12.17
2023-06-30T12:33:33.665Z,10.90
2023-06-30T12:36:04.638Z,10.23
2023-06-30T12:38:31.434Z,11.40
2023-06-30T12:40:58.198Z,10.70
2023-06-30T12:43:25.770Z,11.87
2023-06-30T12:45:53.237Z,11.07
2023-06-30T12:48:20.377Z,11.90
2023-06-30T12:50:47.370Z,10.47
2023-06-30T12:53:14.304Z,10.77
2023-06-30T12:55:41.030Z,12.10
2023-06-30T12:58:07.737Z,11.77
2023-06-30T13:00:34.405Z,11.57
2023-06-30T13:03:01.401Z,10.50
2023-06-30T13:05:28.550Z,9.73
2023-06-30T13:07:56.829Z,9.93
2023-06-30T13:10:24.074Z,10.13
2023-06-30T13:12:51.521Z,9.43
2023-06-30T13:15:18.294Z,9.87
2023-06-30T13:17:45.112Z,8.73
2023-06-30T13:20:12.005Z,9.43
2023-06-30T13:22:50.802Z,9.40
2023-06-30T13:25:22.844Z,9.17
2023-06-30T13:27:49.660Z,9.17
2023-06-30T13:30:16.396Z,9.67
2023-06-30T13:32:43.151Z,10.03
2023-06-30T13:35:09.940Z,10.50
2023-06-30T13:37:36.726Z,12.00
2023-06-30T13:40:03.717Z,12.30
2023-06-30T13:42:31.245Z,12.53
2023-06-30T13:44:58.040Z,12.27
2023-06-30T13:47:24.808Z,11.80
2023-06-30T13:49:51.560Z,13.03
2023-06-30T13:52:18.263Z,12.93
2023-06-30T13:54:44.957Z,12.13
2023-06-30T13:57:12.398Z,12.57
2023-06-30T13:59:39.093Z,13.17
2023-06-30T14:02:06.303Z,12.90
2023-06-30T14:04:33.380Z,11.97
2023-06-30T14:07:00.441Z,11.43
2023-06-30T14:09:27.154Z,12.80
2023-06-30T14:11:53.935Z,13.10
2023-06-30T14:14:20.695Z,13.87
2023-06-30T14:16:47.485Z,14.27
2023-06-30T14:19:14.253Z,15.53
2023-06-30T14:21:41.019Z,13.73
2023-06-30T14:24:07.782Z,13.60
2023-06-30T14:26:35.107Z,14.03
2023-06-30T14:29:04.201Z,15.77
2023-06-30T14:31:31.644Z,15.23
2023-06-30T14:33:58.469Z,20.57
2023-06-30T14:36:27.083Z,15.17
2023-06-30T14:38:54.107Z,15.90
2023-06-30T14:41:20.923Z,14.67
2023-06-30T14:43:47.711Z,15.50
2023-06-30T14:46:14.514Z,13.27
2023-06-30T14:48:41.262Z,14.67
2023-06-30T14:51:08.045Z,13.77
2023-06-30T14:53:34.806Z,13.80
2023-06-30T14:56:01.480Z,13.30
2023-06-30T14:58:28.264Z,14.50
2023-06-30T15:00:54.967Z,13.50
2023-06-30T15:03:22.030Z,14.37
2023-06-30T15:05:49.049Z,13.77
2023-06-30T15:08:15.805Z,13.00
2023-06-30T15:10:42.516Z,14.97
2023-06-30T15:13:09.328Z,14.90
2023-06-30T15:15:36.269Z,13.87
2023-06-30T15:18:03.067Z,13.93
2023-06-30T15:20:29.862Z,14.27
2023-06-30T15:22:56.610Z,15.47
2023-06-30T15:25:30.098Z,14.67
2023-06-30T15:27:57.484Z,14.23
2023-06-30T15:30:24.545Z,14.93
2023-06-30T15:32:51.612Z,14.67
2023-06-30T15:35:18.958Z,15.93
2023-06-30T15:37:45.702Z,19.10
2023-06-30T15:40:12.520Z,21.20
2023-06-30T15:42:39.290Z,22.60
2023-06-30T15:45:08.886Z,23.13
2023-06-30T15:47:35.667Z,22.00
2023-06-30T15:50:02.598Z,23.03
2023-06-30T15:52:29.275Z,23.57
2023-06-30T15:55:12.081Z,23.63
2023-06-30T15:57:38.813Z,21.57
2023-06-30T16:00:06.419Z,24.53
2023-06-30T16:02:42.458Z,22.00
2023-06-30T16:05:10.272Z,22.77
2023-06-30T16:07:37.412Z,22.87
2023-06-30T16:10:05.744Z,21.77
2023-06-30T16:12:32.606Z,21.97
2023-06-30T16:14:59.754Z,16.63
2023-06-30T16:17:26.631Z,18.30
2023-06-30T16:19:53.311Z,18.93
2023-06-30T16:22:20.064Z,20.97
2023-06-30T16:24:46.973Z,20.97
2023-06-30T16:27:13.842Z,21.93
2023-06-30T16:29:41.344Z,21.60
2023-06-30T16:32:08.612Z,21.40
2023-06-30T16:34:35.490Z,21.27
2023-06-30T16:37:02.489Z,19.00
2023-06-30T16:39:29.251Z,21.73
2023-06-30T16:41:55.931Z,19.70
2023-06-30T16:44:22.799Z,19.80
2023-06-30T16:46:49.577Z,18.73
2023-06-30T16:49:16.401Z,19.63
2023-06-30T16:51:43.653Z,20.33
2023-06-30T16:54:10.587Z,18.70
2023-06-30T16:56:37.403Z,19.17
2023-06-30T16:59:04.453Z,18.77
2023-06-30T17:01:31.341Z,19.27
2023-06-30T17:03:58.160Z,18.60
2023-06-30T17:06:24.969Z,17.93
2023-06-30T17:08:51.751Z,17.33
2023-06-30T17:11:18.760Z,18.97
2023-06-30T17:13:45.556Z,17.57
2023-06-30T17:16:12.370Z,17.93
2023-06-30T17:18:39.126Z,17.40
2023-06-30T17:21:05.840Z,18.20
2023-06-30T17:23:32.582Z,18.00
2023-06-30T17:25:59.328Z,17.30
2023-06-30T17:28:26.067Z,16.97
2023-06-30T17:30:53.018Z,17.53
2023-06-30T17:33:19.746Z,17.87
2023-06-30T17:35:46.693Z,18.57
2023-06-30T17:38:13.745Z,17.40
2023-06-30T17:40:40.642Z,16.70
2023-06-30T17:43:07.448Z,17.77
2023-06-30T17:45:34.326Z,17.63
2023-06-30T17:48:01.217Z,16.40
2023-06-30T17:50:28.154Z,15.97
2023-06-30T17:52:54.903Z,16.13
2023-06-30T17:55:21.604Z,16.33
2023-06-30T17:57:48.478Z,15.90
2023-06-30T18:00:15.513Z,16.67
2023-06-30T18:02:42.723Z,17.60
2023-06-30T18:05:11.202Z,17.77
2023-06-30T18:07:38.223Z,16.90
2023-06-30T18:10:05.178Z,15.40
2023-06-30T18:12:31.874Z,16.93
2023-06-30T18:14:58.609Z,16.13
2023-06-30T18:17:25.477Z,16.77
2023-06-30T18:19:52.300Z,16.03
2023-06-30T18:22:19.379Z,16.47
2023-06-30T18:24:47.015Z,16.10
2023-06-30T18:27:13.792Z,16.20
2023-06-30T18:29:40.546Z,16.47
2023-06-30T18:32:08.180Z,16.47
2023-06-30T18:34:34.991Z,15.37
2023-06-30T18:37:01.848Z,15.43
2023-06-30T18:39:28.702Z,15.53
2023-06-30T18:41:56.014Z,15.23
2023-06-30T18:44:24.957Z,15.00
2023-06-30T18:46:52.145Z,14.53
2023-06-30T18:49:20.676Z,13.63
2023-06-30T18:51:47.490Z,14.10
2023-06-30T18:54:14.322Z,13.43
2023-06-30T18:56:41.037Z,13.90
2023-06-30T18:59:07.817Z,13.20
2023-06-30T19:01:35.029Z,13.70
2023-06-30T19:04:01.993Z,13.53
2023-06-30T19:06:28.905Z,12.73
2023-06-30T19:08:58.483Z,12.37
2023-06-30T19:11:25.299Z,12.53
2023-06-30T19:13:52.229Z,11.30
2023-06-30T19:16:19.374Z,12.70
2023-06-30T19:18:47.038Z,12.23
2023-06-30T19:21:14.079Z,12.27
2023-06-30T19:23:44.153Z,11.90
2023-06-30T19:26:11.760Z,12.47
2023-06-30T19:28:41.649Z,12.53
2023-06-30T19:31:08.724Z,12.20
2023-06-30T19:33:37.390Z,12.63
2023-06-30T19:36:04.291Z,11.77
2023-06-30T19:38:31.075Z,11.70
2023-06-30T19:40:57.908Z,12.33
2023-06-30T19:43:24.653Z,12.17
2023-06-30T19:45:51.654Z,11.63
2023-06-30T19:48:19.314Z,12.70
2023-06-30T19:50:46.088Z,11.77
2023-06-30T19:53:13.543Z,11.77
2023-06-30T19:55:40.289Z,12.10
2023-06-30T19:58:10.215Z,11.90
2023-06-30T20:00:38.024Z,10.93
2023-06-30T20:03:05.011Z,10.37
2023-06-30T20:05:31.858Z,10.10
2023-06-30T20:07:58.546Z,10.37
2023-06-30T20:10:25.311Z,10.13
2023-06-30T20:12:52.449Z,9.20
2023-06-30T20:15:19.281Z,10.03
2023-06-30T20:17:46.085Z,10.67
2023-06-30T20:20:14.915Z,10.33
2023-06-30T20:22:42.553Z,9.47
2023-06-30T20:25:10.295Z,10.07
2023-06-30T20:27:37.257Z,9.73
2023-06-30T20:30:05.050Z,9.27
2023-06-30T20:32:31.857Z,10.10
2023-06-30T20:34:58.737Z,9.50
2023-06-30T20:37:25.513Z,8.67
2023-06-30T20:39:53.356Z,9.13
2023-06-30T20:42:22.220Z,7.97
2023-06-30T20:44:48.944Z,7.97
2023-06-30T20:47:17.306Z,7.33
2023-06-30T20:49:44.172Z,7.20
2023-06-30T20:52:10.926Z,7.37
2023-06-30T20:54:38.021Z,7.07
2023-06-30T20:57:04.895Z,7.13
2023-06-30T20:59:31.673Z,6.80
2023-06-30T21:01:58.481Z,6.67
2023-06-30T21:04:25.335Z,7.07
2023-06-30T21:06:52.148Z,7.13
2023-06-30T21:09:18.843Z,7.17
2023-06-30T21:11:45.524Z,6.50
2023-06-30T21:14:12.310Z,6.03
2023-06-30T21:16:39.292Z,6.50
2023-06-30T21:19:06.043Z,6.17
2023-06-30T21:21:32.743Z,6.53
2023-06-30T21:23:59.406Z,5.27
2023-06-30T21:26:26.206Z,6.10
2023-06-30T21:28:53.017Z,5.30
2023-06-30T21:31:19.786Z,5.43
2023-06-30T21:33:47.433Z,5.90
2023-06-30T21:36:14.651Z,5.20
2023-06-30T21:38:41.926Z,5.43
2023-06-30T21:41:09.146Z,5.40
2023-06-30T21:43:35.853Z,5.40
2023-06-30T21:46:12.795Z,5.77
2023-06-30T21:48:39.605Z,5.80
2023-06-30T21:51:06.454Z,5.83
2023-06-30T21:53:33.112Z,6.23
2023-06-30T21:56:00.148Z,5.83
2023-06-30T21:58:28.038Z,5.83
2023-06-30T22:00:55.337Z,5.10
2023-06-30T22:03:22.539Z,5.33
2023-06-30T22:05:49.349Z,5.57
2023-06-30T22:08:16.165Z,4.63
2023-06-30T22:10:42.991Z,5.13
2023-06-30T22:13:09.741Z,4.47
2023-06-30T22:15:36.492Z,4.63
2023-06-30T22:18:03.277Z,4.47
2023-06-30T22:20:30.037Z,4.53
2023-06-30T22:22:56.786Z,4.23
2023-06-30T22:25:23.564Z,4.33
2023-06-30T22:27:53.785Z,4.23
2023-06-30T22:30:20.615Z,4.43
2023-06-30T22:32:47.383Z,4.50
2023-06-30T22:35:14.168Z,4.70
2023-06-30T22:37:40.858Z,4.90
2023-06-30T22:40:07.927Z,4.33
2023-06-30T22:42:34.670Z,4.30
2023-06-30T22:45:01.742Z,4.57
2023-06-30T22:47:28.450Z,4.70
2023-06-30T22:49:55.227Z,4.70
2023-06-30T22:52:21.908Z,4.27
2023-06-30T22:54:48.617Z,4.37
2023-06-30T22:57:15.583Z,4.53
2023-06-30T22:59:42.413Z,4.30
2023-06-30T23:02:09.118Z,4.20
2023-06-30T23:04:35.855Z,4.10
2023-06-30T23:07:02.723Z,4.50
2023-06-30T23:09:29.477Z,4.30
2023-06-30T23:11:56.276Z,4.40
2023-06-30T23:14:24.195Z,4.20
2023-06-30T23:16:50.963Z,4.40
2023-06-30T23:19:17.914Z,4.37
2023-06-30T23:21:45.183Z,4.63
2023-06-30T23:24:12.239Z,4.93
2023-06-30T23:26:39.961Z,4.30
2023-06-30T23:29:09.540Z,4.30
2023-06-30T23:31:39.346Z,4.23
2023-06-30T23:34:06.802Z,3.70
2023-06-30T23:36:34.304Z,3.80
2023-06-30T23:39:01.043Z,4.30
2023-06-30T23:41:28.067Z,4.17
2023-06-30T23:43:54.944Z,4.03
2023-06-30T23:46:22.511Z,4.17
2023-06-30T23:48:51.145Z,4.57
2023-06-30T23:51:18.242Z,4.00
2023-06-30T23:53:44.899Z,4.23
2023-06-30T23:56:11.658Z,4.57
2023-06-30T23:58:38.400Z,4.30
